Time;durP1;ratioP1;P1;durP2;ratioP2;P2;SDS_P1;SDS_P2;PMS_P1;PMS_P2;Temp;Humidity;BMP_temperature;BMP_pressure;BME280_temperature;BME280_humidity;BME280_pressure;Samples;Min_cycle;Max_cycle;Signal;HPM_P1;HPM_P2
2023/10/19 00:01:17;;;;;;;74.67;39.27;;;4.60;99.90;;;;;;8399001;28;20204;-60
2023/10/19 00:05:19;;;;;;;33.03;20.53;;;4.60;99.90;;;;;;8397661;28;20291;-61
2023/10/19 00:09:20;;;;;;;30.27;20.07;;;4.70;99.90;;;;;;8399243;28;20343;-62
2023/10/19 00:13:22;;;;;;;30.60;20.23;;;4.70;99.90;;;;;;8398212;28;20215;-59
2023/10/19 00:17:26;;;;;;;26.80;17.70;;;4.70;99.90;;;;;;8398251;28;20185;-61
2023/10/19 00:21:27;;;;;;;24.43;16.37;;;4.50;99.90;;;;;;8398129;28;20184;-61
2023/10/19 00:25:29;;;;;;;28.53;18.97;;;4.50;99.90;;;;;;8397085;28;20184;-59
2023/10/19 00:29:30;;;;;;;36.37;21.47;;;4.30;99.90;;;;;;8398365;28;20314;-59
2023/10/19 00:33:32;;;;;;;27.87;18.37;;;4.30;99.90;;;;;;8397824;28;20311;-59
2023/10/19 00:37:41;;;;;;;30.23;19.00;;;4.20;99.90;;;;;;8399934;28;20192;-61
2023/10/19 00:41:45;;;;;;;30.07;18.10;;;4.10;99.90;;;;;;8397371;28;20192;-61
2023/10/19 00:45:47;;;;;;;33.93;18.87;;;4.00;99.90;;;;;;8399277;28;20181;-60
2023/10/19 00:49:48;;;;;;;30.80;18.77;;;4.00;99.90;;;;;;8398506;28;20188;-61
2023/10/19 00:53:49;;;;;;;27.37;18.73;;;4.10;99.90;;;;;;8402794;28;20188;-61
2023/10/19 00:57:52;;;;;;;29.70;18.50;;;4.10;99.90;;;;;;8404990;28;20181;-59
2023/10/19 01:01:55;;;;;;;32.17;18.43;;;4.10;99.90;;;;;;8402695;28;20204;-61
2023/10/19 01:05:57;;;;;;;25.97;16.33;;;4.20;99.90;;;;;;8404348;28;20194;-59
2023/10/19 01:10:05;;;;;;;26.10;16.27;;;4.20;99.90;;;;;;8404767;28;20265;-59
2023/10/19 01:14:22;;;;;;;20.70;14.53;;;4.20;1.00;;;;;;8404937;28;20178;-66
2023/10/19 01:18:29;;;;;;;20.60;13.97;;;4.30;99.90;;;;;;8402087;28;21038;-61
2023/10/19 01:22:30;;;;;;;19.67;13.53;;;4.30;99.90;;;;;;8401521;28;20283;-60
2023/10/19 01:26:30;;;;;;;27.20;16.93;;;4.30;99.90;;;;;;8403784;28;20188;-59
2023/10/19 01:30:31;;;;;;;18.30;13.10;;;4.30;99.90;;;;;;8406187;28;20296;-61
2023/10/19 01:34:33;;;;;;;19.63;14.03;;;4.40;99.90;;;;;;8403753;28;20182;-60
2023/10/19 01:38:34;;;;;;;18.67;13.17;;;4.40;99.90;;;;;;8407756;28;20181;-62
2023/10/19 01:42:35;;;;;;;20.50;13.23;;;4.40;99.90;;;;;;8404383;28;20191;-61
2023/10/19 01:46:36;;;;;;;16.40;11.33;;;4.40;99.90;;;;;;8403833;28;20629;-60
2023/10/19 01:50:39;;;;;;;18.50;12.57;;;4.30;99.90;;;;;;8405543;28;20204;-62
2023/10/19 01:54:39;;;;;;;22.80;14.63;;;4.20;99.90;;;;;;8411129;28;20192;-60
2023/10/19 01:58:42;;;;;;;25.50;16.70;;;4.20;99.90;;;;;;8403285;28;20192;-60
2023/10/19 02:02:42;;;;;;;27.13;15.87;;;4.20;99.90;;;;;;8403369;28;20185;-58
2023/10/19 02:06:46;;;;;;;21.43;14.50;;;4.30;99.90;;;;;;8403080;28;20184;-60
2023/10/19 02:10:48;;;;;;;20.17;14.10;;;4.30;99.90;;;;;;8406432;28;20269;-58
2023/10/19 02:14:48;;;;;;;19.50;13.73;;;4.40;99.90;;;;;;8399598;28;20218;-58
2023/10/19 02:18:50;;;;;;;21.33;14.83;;;4.40;99.90;;;;;;8404117;28;20495;-60
2023/10/19 02:22:52;;;;;;;19.27;13.63;;;4.50;99.90;;;;;;8399871;28;20196;-61
2023/10/19 02:26:55;;;;;;;22.00;13.67;;;4.60;99.90;;;;;;8403783;28;20189;-60
2023/10/19 02:30:56;;;;;;;19.30;13.13;;;4.60;99.90;;;;;;8402551;28;20219;-60
2023/10/19 02:34:57;;;;;;;19.73;14.20;;;4.70;99.90;;;;;;8407351;28;20249;-62
2023/10/19 02:39:07;;;;;;;21.33;13.50;;;4.80;99.90;;;;;;8403764;28;20181;-62
2023/10/19 02:43:08;;;;;;;16.13;12.47;;;4.80;99.90;;;;;;8406264;28;20208;-63
2023/10/19 02:47:08;;;;;;;17.43;13.10;;;4.90;99.90;;;;;;8405387;28;20203;-66
2023/10/19 02:51:12;;;;;;;17.97;12.03;;;4.90;99.90;;;;;;8395618;28;20200;-68
2023/10/19 02:55:16;;;;;;;25.10;15.00;;;5.00;99.90;;;;;;8405320;28;20200;-65
2023/10/19 02:59:24;;;;;;;20.90;13.20;;;5.00;99.90;;;;;;8402365;28;20219;-63
2023/10/19 03:03:24;;;;;;;17.83;12.33;;;5.10;99.90;;;;;;8401326;28;20267;-64
2023/10/19 03:07:25;;;;;;;16.73;11.03;;;5.10;99.90;;;;;;8402565;28;20195;-63
2023/10/19 03:11:27;;;;;;;19.97;12.07;;;5.10;99.90;;;;;;8400461;28;20286;-63
2023/10/19 03:15:30;;;;;;;17.30;12.57;;;5.10;99.90;;;;;;8399794;28;20183;-62
2023/10/19 03:19:31;;;;;;;17.17;12.43;;;5.10;99.90;;;;;;8403285;28;20215;-66
2023/10/19 03:23:34;;;;;;;22.83;12.00;;;5.10;99.90;;;;;;8402755;28;20180;-65
2023/10/19 03:27:34;;;;;;;18.33;13.00;;;5.10;99.90;;;;;;8402131;28;20202;-62
2023/10/19 03:31:37;;;;;;;18.07;12.67;;;5.20;98.50;;;;;;8402079;28;20200;-63
2023/10/19 03:35:41;;;;;;;20.27;13.03;;;5.10;99.00;;;;;;8399671;28;20212;-64
2023/10/19 03:39:45;;;;;;;20.90;14.50;;;5.10;95.70;;;;;;8417117;28;20168;-65
2023/10/19 03:43:46;;;;;;;19.50;12.97;;;5.10;94.30;;;;;;8402107;28;20181;-63
2023/10/19 03:47:49;;;;;;;21.90;13.63;;;5.10;94.40;;;;;;8400827;28;20180;-66
2023/10/19 03:52:19;;;;;;;18.80;12.97;;;5.10;92.70;;;;;;8404164;28;20200;-62
2023/10/19 03:56:20;;;;;;;20.63;13.80;;;5.00;95.30;;;;;;8398057;28;20195;-67
2023/10/19 04:00:25;;;;;;;18.83;13.47;;;5.00;96.90;;;;;;8400352;28;20567;-64
2023/10/19 04:04:27;;;;;;;19.87;13.60;;;5.00;99.50;;;;;;8399932;28;20191;-64
2023/10/19 04:08:31;;;;;;;20.10;14.10;;;5.00;99.60;;;;;;8401289;28;20188;-69
2023/10/19 04:12:35;;;;;;;19.57;13.13;;;5.00;99.90;;;;;;8399738;28;20279;-65
2023/10/19 04:16:37;;;;;;;21.73;14.20;;;5.00;98.30;;;;;;8409073;28;20257;-63
2023/10/19 04:24:52;;;;;;;23.00;13.97;;;5.10;89.00;;;;;;8402566;28;20220;-64
2023/10/19 04:28:53;;;;;;;19.33;13.67;;;5.10;83.10;;;;;;8408693;28;20179;-66
2023/10/19 04:32:57;;;;;;;20.27;13.47;;;5.20;78.20;;;;;;8405012;28;20750;-67
2023/10/19 04:36:57;;;;;;;23.07;14.73;;;5.20;72.20;;;;;;8408343;28;20223;-68
2023/10/19 04:41:09;;;;;;;21.40;13.20;;;5.20;59.30;;;;;;8403904;28;20184;-65
2023/10/19 04:45:11;;;;;;;20.57;13.97;;;5.30;57.30;;;;;;8404030;28;20189;-62
2023/10/19 04:49:12;;;;;;;18.33;13.53;;;5.40;44.10;;;;;;8406137;28;20184;-64
2023/10/19 04:53:13;;;;;;;23.17;15.07;;;5.40;36.50;;;;;;8405767;28;20273;-62
2023/10/19 04:57:13;;;;;;;18.20;14.10;;;5.50;22.40;;;;;;8401995;28;20260;-60
2023/10/19 05:01:15;;;;;;;18.73;13.20;;;5.50;8.00;;;;;;8407333;28;20801;-61
2023/10/19 05:05:17;;;;;;;19.43;12.93;;;5.50;1.00;;;;;;8402575;28;20311;-61
2023/10/19 05:09:18;;;;;;;16.20;11.87;;;5.60;1.00;;;;;;8404105;28;20299;-61
2023/10/19 05:13:19;;;;;;;18.03;12.90;;;5.60;1.00;;;;;;8404317;28;20215;-61
2023/10/19 05:17:21;;;;;;;19.33;12.03;;;5.70;1.00;;;;;;8404459;28;20200;-61
2023/10/19 05:21:22;;;;;;;17.73;11.77;;;5.70;1.00;;;;;;8405482;28;20181;-61
2023/10/19 05:25:23;;;;;;;24.27;17.70;;;5.70;1.00;;;;;;8405093;28;20184;-61
2023/10/19 05:29:24;;;;;;;19.47;15.07;;;5.70;1.00;;;;;;8400830;28;20454;-59
2023/10/19 05:33:25;;;;;;;18.27;14.23;;;5.70;1.00;;;;;;8400750;28;20236;-62
2023/10/19 05:37:29;;;;;;;18.60;14.20;;;5.70;1.00;;;;;;8400337;28;20196;-59
2023/10/19 05:41:31;;;;;;;22.63;15.67;;;5.80;1.00;;;;;;8401378;28;20449;-58
2023/10/19 05:45:32;;;;;;;18.70;12.30;;;5.80;1.00;;;;;;8402892;28;20179;-60
2023/10/19 05:49:33;;;;;;;27.53;18.37;;;5.80;1.00;;;;;;8401887;28;20250;-62
2023/10/19 05:53:34;;;;;;;22.07;18.63;;;5.80;1.00;;;;;;8394624;28;20212;-62
2023/10/19 05:57:35;;;;;;;43.57;19.93;;;5.90;1.00;;;;;;8402856;28;20246;-61
2023/10/19 06:01:41;;;;;;;23.00;14.30;;;6.00;1.00;;;;;;8400929;28;20250;-63
2023/10/19 06:05:43;;;;;;;17.40;13.73;;;6.00;7.10;;;;;;8400274;28;20247;-63
2023/10/19 06:09:43;;;;;;;29.37;21.67;;;6.00;6.80;;;;;;8401762;28;20262;-62
2023/10/19 06:13:44;;;;;;;29.27;16.10;;;6.00;36.10;;;;;;8399185;28;20223;-69
2023/10/19 06:17:45;;;;;;;24.20;14.23;;;6.10;37.60;;;;;;8401036;28;20172;-66
2023/10/19 06:21:46;;;;;;;22.60;14.57;;;6.10;38.40;;;;;;8402480;28;20176;-70
2023/10/19 06:25:47;;;;;;;19.33;14.27;;;6.10;44.10;;;;;;8400566;28;20185;-69
2023/10/19 06:29:49;;;;;;;26.40;15.80;;;6.20;94.60;;;;;;8393783;28;20188;-66
2023/10/19 06:33:50;;;;;;;22.20;14.10;;;6.10;99.90;;;;;;8401263;28;20249;-67
2023/10/19 06:37:53;;;;;;;20.17;14.80;;;6.10;99.90;;;;;;8398243;28;20180;-66
2023/10/19 06:41:53;;;;;;;33.37;20.47;;;6.10;99.90;;;;;;8399372;28;20187;-65
2023/10/19 06:45:55;;;;;;;37.07;20.00;;;6.20;99.90;;;;;;8397815;28;20186;-66
2023/10/19 06:49:56;;;;;;;24.33;15.93;;;6.40;99.90;;;;;;8398763;28;20184;-67
2023/10/19 06:53:57;;;;;;;23.93;15.87;;;6.50;99.90;;;;;;8400229;28;20194;-66
2023/10/19 06:57:59;;;;;;;58.10;33.67;;;6.60;99.90;;;;;;8398242;28;20184;-65
2023/10/19 07:02:02;;;;;;;37.37;24.10;;;6.70;99.90;;;;;;8398968;28;20228;-69
2023/10/19 07:06:03;;;;;;;41.77;21.70;;;6.70;99.90;;;;;;8398713;28;20510;-69
2023/10/19 07:10:05;;;;;;;39.33;25.47;;;6.70;99.90;;;;;;8398668;28;20589;-65
2023/10/19 07:14:07;;;;;;;29.33;21.37;;;6.70;99.90;;;;;;8391989;28;20189;-65
2023/10/19 07:18:09;;;;;;;24.43;17.57;;;6.60;99.90;;;;;;8392213;28;20203;-63
2023/10/19 07:22:09;;;;;;;32.80;20.83;;;6.60;99.90;;;;;;8400446;28;20185;-68
2023/10/19 07:26:11;;;;;;;34.50;19.70;;;6.60;99.90;;;;;;8397219;28;20279;-66
2023/10/19 07:30:15;;;;;;;31.87;21.47;;;6.50;99.90;;;;;;8399810;28;20465;-67
2023/10/19 07:34:16;;;;;;;33.00;20.93;;;6.60;99.90;;;;;;8397488;28;20219;-66
2023/10/19 07:38:16;;;;;;;29.77;18.53;;;6.60;99.90;;;;;;8397348;28;20176;-66
2023/10/19 07:42:17;;;;;;;28.47;18.07;;;6.60;99.90;;;;;;8397472;28;20188;-67
2023/10/19 07:46:18;;;;;;;22.73;16.93;;;6.70;99.90;;;;;;8397432;28;20253;-67
2023/10/19 07:50:19;;;;;;;28.73;19.30;;;6.70;99.90;;;;;;8397821;28;20305;-67
2023/10/19 07:54:20;;;;;;;52.23;30.03;;;6.70;99.90;;;;;;8397767;28;20197;-67
2023/10/19 07:58:21;;;;;;;58.93;30.33;;;6.70;99.90;;;;;;8400440;28;20256;-68
2023/10/19 08:02:24;;;;;;;34.40;21.07;;;6.80;99.90;;;;;;8402855;28;20300;-67
2023/10/19 08:06:26;;;;;;;29.00;17.83;;;6.90;99.90;;;;;;8406847;28;20195;-67
2023/10/19 08:10:27;;;;;;;19.43;14.67;;;6.90;99.90;;;;;;8404988;28;20200;-67
2023/10/19 08:14:30;;;;;;;19.23;13.93;;;7.00;99.90;;;;;;8397805;28;20169;-67
2023/10/19 08:18:35;;;;;;;22.53;14.83;;;7.10;99.90;;;;;;8399018;28;20188;-68
2023/10/19 08:22:36;;;;;;;34.43;23.47;;;7.20;99.90;;;;;;8404884;28;20307;-68
2023/10/19 08:26:39;;;;;;;43.70;29.17;;;7.40;99.90;;;;;;8403596;28;20280;-67
2023/10/19 08:30:44;;;;;;;34.40;23.57;;;7.50;99.90;;;;;;8406485;28;20231;-68
2023/10/19 08:34:45;;;;;;;30.30;22.23;;;7.50;99.90;;;;;;8402680;28;20219;-65
2023/10/19 08:38:46;;;;;;;26.73;20.10;;;7.60;99.90;;;;;;8402572;28;20480;-67
2023/10/19 08:42:51;;;;;;;23.00;18.50;;;7.70;99.90;;;;;;8402639;28;20210;-64
2023/10/19 08:46:52;;;;;;;23.60;17.83;;;7.70;99.90;;;;;;8404344;28;20215;-65
2023/10/19 08:50:55;;;;;;;24.93;19.30;;;7.80;99.90;;;;;;8401359;28;20208;-63
2023/10/19 08:54:57;;;;;;;24.73;19.00;;;7.80;99.90;;;;;;8405191;28;20196;-65
2023/10/19 08:59:02;;;;;;;24.17;18.90;;;7.90;99.90;;;;;;8402567;28;20216;-64
2023/10/19 09:03:04;;;;;;;21.80;17.97;;;8.00;99.90;;;;;;8402500;28;20194;-63
2023/10/19 09:07:10;;;;;;;21.70;15.93;;;8.00;99.90;;;;;;8400147;28;20189;-63
2023/10/19 09:11:14;;;;;;;33.77;22.30;;;8.10;99.90;;;;;;8401382;28;20216;-65
2023/10/19 09:15:22;;;;;;;42.70;24.03;;;8.10;99.90;;;;;;8402192;28;20183;-63
2023/10/19 09:19:36;;;;;;;27.20;19.63;;;8.10;99.90;;;;;;8395052;28;20181;-64
2023/10/19 09:23:38;;;;;;;25.50;19.00;;;8.10;99.90;;;;;;8400201;28;20196;-63
2023/10/19 09:27:39;;;;;;;86.37;34.77;;;8.20;99.90;;;;;;8400598;28;20216;-65
2023/10/19 09:31:41;;;;;;;25.70;19.07;;;8.10;99.90;;;;;;8414778;28;20208;-64
2023/10/19 09:35:48;;;;;;;27.83;19.00;;;8.10;99.90;;;;;;8402089;28;20183;-65
2023/10/19 09:39:48;;;;;;;23.53;18.17;;;8.10;99.90;;;;;;8401104;28;20185;-66
2023/10/19 09:43:50;;;;;;;27.50;19.17;;;8.10;99.90;;;;;;8403213;28;20271;-68
2023/10/19 09:47:54;;;;;;;24.27;17.13;;;8.20;99.90;;;;;;8394712;28;20212;-69
2023/10/19 09:51:55;;;;;;;33.80;21.47;;;8.40;99.90;;;;;;8403185;28;20208;-69
2023/10/19 09:56:06;;;;;;;22.27;17.00;;;8.50;99.90;;;;;;8403827;28;20298;-69
2023/10/19 10:00:12;;;;;;;25.20;19.07;;;8.70;99.90;;;;;;8403683;28;20239;-69
2023/10/19 10:04:31;;;;;;;30.77;20.17;;;8.70;99.90;;;;;;8404890;28;20217;-69
2023/10/19 10:08:33;;;;;;;26.60;19.57;;;8.70;99.90;;;;;;8394317;28;20189;-70
2023/10/19 10:12:34;;;;;;;35.17;25.37;;;8.80;99.90;;;;;;8408032;28;20534;-70
2023/10/19 10:16:38;;;;;;;27.27;20.50;;;8.80;99.90;;;;;;8407160;28;20181;-70
2023/10/19 10:20:39;;;;;;;25.77;20.37;;;8.80;99.90;;;;;;8409543;28;20260;-69
2023/10/19 10:24:42;;;;;;;26.70;20.57;;;8.80;99.90;;;;;;8406039;28;20181;-69
2023/10/19 10:28:50;;;;;;;37.90;25.70;;;8.80;99.90;;;;;;8405030;28;20185;-69
2023/10/19 10:32:56;;;;;;;31.63;22.23;;;8.80;99.90;;;;;;8404274;28;20564;-69
2023/10/19 10:37:08;;;;;;;24.17;18.30;;;8.80;99.90;;;;;;8412852;28;20245;-69
2023/10/19 10:41:09;;;;;;;24.47;19.60;;;8.70;99.90;;;;;;8413581;28;20252;-70
2023/10/19 10:45:21;;;;;;;27.87;20.00;;;8.50;99.90;;;;;;8404988;28;20198;-70
2023/10/19 10:49:23;;;;;;;25.67;18.97;;;8.50;99.90;;;;;;8407402;28;20201;-68
2023/10/19 10:53:26;;;;;;;27.30;21.07;;;8.40;99.90;;;;;;8407793;28;20237;-68
2023/10/19 10:57:32;;;;;;;23.87;20.23;;;8.50;99.90;;;;;;8404070;28;20614;-70
2023/10/19 11:01:34;;;;;;;26.20;18.60;;;8.50;1.00;;;;;;8401968;28;20208;-71
2023/10/19 11:05:37;;;;;;;26.07;20.20;;;8.50;1.00;;;;;;8399010;28;20274;-65
2023/10/19 11:09:45;;;;;;;23.80;18.87;;;8.60;1.00;;;;;;8399703;28;20177;-63
2023/10/19 11:13:45;;;;;;;22.13;19.03;;;8.70;1.00;;;;;;8398767;28;20218;-66
2023/10/19 11:17:47;;;;;;;24.70;19.63;;;8.80;1.00;;;;;;8400517;28;20481;-69
2023/10/19 11:21:54;;;;;;;30.43;25.03;;;9.00;99.90;;;;;;8404257;28;20188;-68
2023/10/19 11:25:59;;;;;;;32.23;24.00;;;9.00;99.90;;;;;;8400412;28;20181;-67
2023/10/19 11:30:04;;;;;;;35.40;25.17;;;9.00;99.90;;;;;;8400659;28;20250;-69
2023/10/19 11:34:06;;;;;;;39.30;26.07;;;8.90;99.90;;;;;;8396622;28;20185;-68
2023/10/19 11:38:07;;;;;;;38.30;25.83;;;8.90;99.90;;;;;;8399350;28;20216;-68
2023/10/19 11:42:09;;;;;;;34.50;25.63;;;8.90;99.90;;;;;;8398720;28;20192;-68
2023/10/19 11:46:14;;;;;;;46.90;34.60;;;8.90;99.90;;;;;;8399269;28;20189;-68
2023/10/19 11:50:15;;;;;;;33.87;25.73;;;9.10;1.00;;;;;;8400434;28;20186;-68
2023/10/19 11:54:18;;;;;;;32.10;24.57;;;9.10;99.90;;;;;;8399411;28;20274;-70
2023/10/19 11:58:18;;;;;;;30.50;24.20;;;9.10;99.90;;;;;;8398992;28;20176;-69
2023/10/19 12:02:20;;;;;;;40.57;28.20;;;9.20;1.00;;;;;;8400257;28;20616;-66
2023/10/19 12:06:23;;;;;;;43.10;27.37;;;9.20;99.90;;;;;;8391361;28;20519;-67
2023/10/19 12:10:32;;;;;;;35.07;26.87;;;9.20;99.90;;;;;;8400610;28;20493;-65
2023/10/19 12:14:36;;;;;;;39.33;28.77;;;9.20;99.90;;;;;;8399453;28;20462;-68
2023/10/19 12:18:38;;;;;;;67.47;35.10;;;9.20;99.90;;;;;;8396482;28;20190;-65
2023/10/19 12:22:39;;;;;;;53.23;32.03;;;9.30;1.00;;;;;;8398296;28;20187;-62
2023/10/19 12:26:39;;;;;;;42.73;30.13;;;9.30;1.00;;;;;;8391278;28;20312;-64
2023/10/19 12:30:44;;;;;;;44.27;29.83;;;9.30;1.00;;;;;;8398473;28;20212;-63
2023/10/19 12:34:45;;;;;;;41.13;28.83;;;9.30;1.00;;;;;;8389204;28;20217;-63
2023/10/19 12:38:46;;;;;;;54.53;36.27;;;9.30;1.00;;;;;;8400561;28;20221;-61
2023/10/19 12:42:47;;;;;;;44.47;32.30;;;9.30;1.00;;;;;;8398476;28;20453;-63
2023/10/19 12:46:47;;;;;;;41.03;30.77;;;9.10;1.00;;;;;;8398730;28;20625;-63
2023/10/19 12:50:48;;;;;;;56.30;35.60;;;9.10;1.00;;;;;;8404284;28;20280;-63
2023/10/19 12:54:51;;;;;;;47.80;34.33;;;9.10;99.90;;;;;;8401930;28;20194;-64
2023/10/19 12:58:54;;;;;;;54.43;35.77;;;9.00;99.90;;;;;;8403784;28;20198;-61
2023/10/19 13:03:03;;;;;;;55.87;37.37;;;9.00;1.00;;;;;;8402356;28;20266;-65
2023/10/19 13:07:03;;;;;;;42.07;30.27;;;9.10;1.00;;;;;;8402664;28;20254;-64
2023/10/19 13:11:04;;;;;;;41.83;31.73;;;9.10;98.80;;;;;;8400296;28;20197;-64
2023/10/19 13:15:12;;;;;;;49.33;36.33;;;9.10;99.90;;;;;;8407169;28;20242;-62
2023/10/19 13:19:15;;;;;;;46.43;33.83;;;9.20;99.90;;;;;;8400888;28;20341;-63
2023/10/19 13:23:16;;;;;;;40.67;29.23;;;9.30;99.90;;;;;;8402694;28;20186;-64
2023/10/19 13:27:17;;;;;;;43.47;31.80;;;9.30;99.90;;;;;;8395045;28;20204;-63
2023/10/19 13:31:19;;;;;;;42.77;29.73;;;9.30;99.90;;;;;;8402979;28;20366;-63
2023/10/19 13:35:20;;;;;;;39.70;30.27;;;9.40;99.90;;;;;;8402092;28;20178;-64
2023/10/19 13:39:24;;;;;;;40.40;30.17;;;9.40;99.90;;;;;;8402034;28;20240;-64
2023/10/19 13:43:25;;;;;;;35.40;26.80;;;9.40;1.00;;;;;;8399693;28;20186;-64
2023/10/19 13:47:26;;;;;;;34.87;26.63;;;9.40;22.20;;;;;;8401469;28;20285;-63
2023/10/19 13:51:28;;;;;;;38.50;29.87;;;9.40;92.40;;;;;;8399983;28;21573;-63
2023/10/19 13:55:29;;;;;;;38.83;28.60;;;9.40;99.90;;;;;;8395745;28;20191;-67
2023/10/19 13:59:33;;;;;;;41.47;29.70;;;9.40;99.90;;;;;;8404067;28;20206;-69
2023/10/19 14:03:34;;;;;;;45.27;34.77;;;9.40;99.90;;;;;;8395157;28;20191;-67
2023/10/19 14:07:35;;;;;;;39.27;31.00;;;9.40;99.90;;;;;;8403804;28;20256;-67
2023/10/19 14:11:36;;;;;;;48.03;36.03;;;9.40;99.90;;;;;;8401594;28;20355;-68
2023/10/19 14:15:40;;;;;;;49.57;37.50;;;9.30;99.90;;;;;;8402771;28;20202;-66
2023/10/19 14:19:44;;;;;;;40.57;30.57;;;9.30;99.90;;;;;;8400759;28;20194;-67
2023/10/19 14:23:45;;;;;;;40.40;30.83;;;9.30;1.00;;;;;;8401037;28;20445;-67
2023/10/19 14:27:47;;;;;;;69.33;48.50;;;9.30;83.50;;;;;;8402736;28;20226;-68
2023/10/19 14:31:48;;;;;;;43.03;32.60;;;9.20;99.90;;;;;;8403604;28;20265;-67
2023/10/19 14:35:49;;;;;;;39.97;30.17;;;9.20;1.00;;;;;;8397249;28;20216;-67
2023/10/19 14:39:50;;;;;;;40.50;30.20;;;9.20;99.90;;;;;;8404691;28;20181;-67
2023/10/19 14:43:51;;;;;;;44.43;32.53;;;9.20;99.90;;;;;;8398622;28;20177;-67
2023/10/19 14:47:54;;;;;;;62.87;43.60;;;9.20;1.00;;;;;;8398953;28;20186;-67
2023/10/19 14:51:55;;;;;;;50.33;35.57;;;9.20;16.60;;;;;;8398794;28;20212;-67
2023/10/19 14:55:56;;;;;;;50.73;34.60;;;9.20;99.90;;;;;;8393697;28;20203;-67
2023/10/19 14:59:58;;;;;;;64.40;40.03;;;9.20;99.90;;;;;;8400842;28;20714;-67
2023/10/19 15:04:00;;;;;;;53.30;39.00;;;9.20;99.90;;;;;;8399276;28;20196;-68
2023/10/19 15:08:02;;;;;;;51.60;35.23;;;9.20;99.90;;;;;;8403743;28;20190;-67
2023/10/19 15:12:03;;;;;;;54.37;40.53;;;9.10;1.00;;;;;;8397595;28;20833;-66
2023/10/19 15:16:12;;;;;;;37.37;30.43;;;9.10;1.00;;;;;;8399979;28;20212;-69
2023/10/19 15:20:14;;;;;;;44.50;31.60;;;9.10;1.00;;;;;;8403917;28;20182;-67
2023/10/19 15:24:16;;;;;;;46.77;32.80;;;9.10;1.00;;;;;;8389784;28;20526;-61
2023/10/19 15:28:17;;;;;;;36.90;30.00;;;9.00;1.00;;;;;;8397037;28;20285;-62
2023/10/19 15:32:19;;;;;;;38.20;28.93;;;9.00;1.00;;;;;;8396940;28;20212;-65
2023/10/19 15:36:21;;;;;;;35.33;27.30;;;8.90;1.00;;;;;;8396286;28;20208;-66
2023/10/19 15:40:23;;;;;;;33.43;27.97;;;8.90;1.00;;;;;;8394410;28;20277;-63
2023/10/19 15:44:25;;;;;;;38.87;29.00;;;8.90;99.90;;;;;;8412127;28;20242;-61
2023/10/19 15:48:26;;;;;;;37.60;28.07;;;8.90;99.90;;;;;;8399034;28;20261;-63
2023/10/19 15:52:28;;;;;;;38.77;28.33;;;8.90;99.90;;;;;;8398804;28;20219;-62
2023/10/19 15:56:28;;;;;;;69.33;46.53;;;8.80;99.90;;;;;;8402193;28;20211;-64
2023/10/19 16:00:29;;;;;;;37.47;29.37;;;8.70;99.90;;;;;;8389002;28;20394;-63
2023/10/19 16:04:30;;;;;;;36.63;28.33;;;8.70;99.90;;;;;;8398344;28;20182;-62
2023/10/19 16:08:31;;;;;;;39.57;29.07;;;8.70;99.90;;;;;;8399593;28;20188;-64
2023/10/19 16:12:32;;;;;;;42.53;32.67;;;8.70;99.90;;;;;;8396941;28;20308;-62
2023/10/19 16:16:33;;;;;;;55.00;38.53;;;8.60;99.90;;;;;;8397555;28;20184;-61
2023/10/19 16:20:34;;;;;;;51.23;36.73;;;8.60;99.90;;;;;;8405547;28;20185;-61
2023/10/19 16:24:35;;;;;;;55.73;39.87;;;8.60;99.90;;;;;;8402986;28;20263;-60
2023/10/19 16:28:36;;;;;;;55.10;39.30;;;8.60;99.90;;;;;;8403438;28;20220;-61
2023/10/19 16:32:39;;;;;;;49.27;35.07;;;8.60;99.90;;;;;;8404740;28;20219;-61
2023/10/19 16:36:42;;;;;;;51.87;37.57;;;8.50;99.90;;;;;;8406102;28;20246;-58
2023/10/19 16:40:43;;;;;;;49.67;35.03;;;8.50;99.90;;;;;;8406184;28;20181;-59
2023/10/19 16:44:43;;;;;;;49.40;35.60;;;8.50;99.90;;;;;;8397646;28;20180;-60
2023/10/19 16:48:44;;;;;;;45.33;32.53;;;8.50;99.90;;;;;;8403203;28;20185;-58
2023/10/19 16:52:47;;;;;;;39.77;29.47;;;8.50;99.90;;;;;;8404480;28;20212;-59
2023/10/19 16:56:48;;;;;;;43.10;30.27;;;8.50;99.90;;;;;;8404817;28;20176;-61
2023/10/19 17:00:49;;;;;;;48.70;32.70;;;8.40;99.90;;;;;;8404078;28;20496;-60
2023/10/19 17:04:51;;;;;;;45.90;31.73;;;8.50;99.90;;;;;;8402845;28;20192;-62
2023/10/19 17:08:51;;;;;;;48.30;32.07;;;8.50;99.90;;;;;;8395377;28;20185;-59
2023/10/19 17:12:52;;;;;;;49.37;31.30;;;8.40;99.90;;;;;;8403946;28;20212;-65
2023/10/19 17:16:53;;;;;;;52.67;33.90;;;8.40;99.90;;;;;;8409470;28;20177;-68
2023/10/19 17:20:55;;;;;;;62.13;41.23;;;8.50;99.90;;;;;;8406024;28;20184;-67
2023/10/19 17:24:57;;;;;;;60.30;39.50;;;8.40;99.90;;;;;;8407130;28;20225;-64
2023/10/19 17:28:58;;;;;;;67.47;41.60;;;8.40;99.90;;;;;;8402445;28;20327;-64
2023/10/19 17:32:58;;;;;;;60.07;39.73;;;8.40;99.90;;;;;;8406234;28;20258;-65
2023/10/19 17:36:59;;;;;;;73.43;46.53;;;8.40;99.90;;;;;;8405217;28;20177;-66
2023/10/19 17:41:03;;;;;;;60.77;40.20;;;8.50;99.90;;;;;;8407789;28;20200;-64
2023/10/19 17:45:05;;;;;;;80.17;45.73;;;8.50;99.90;;;;;;8405165;28;20194;-63
2023/10/19 17:49:06;;;;;;;65.27;38.87;;;8.50;99.90;;;;;;8408289;28;20284;-66
2023/10/19 17:53:07;;;;;;;84.97;45.87;;;8.40;99.90;;;;;;8400556;28;20215;-66
2023/10/19 17:57:08;;;;;;;80.47;43.47;;;8.50;99.90;;;;;;8403206;28;20184;-62
2023/10/19 18:01:09;;;;;;;82.83;45.83;;;8.50;99.90;;;;;;8403916;28;20268;-65
2023/10/19 18:05:11;;;;;;;75.60;45.37;;;8.50;99.90;;;;;;8403141;28;20390;-67
2023/10/19 18:09:12;;;;;;;95.33;55.20;;;8.40;99.90;;;;;;8404451;28;20219;-66
2023/10/19 18:13:13;;;;;;;81.20;46.53;;;8.40;99.90;;;;;;8401463;28;20311;-66
2023/10/19 18:17:14;;;;;;;106.00;63.03;;;8.50;99.90;;;;;;8405179;28;20176;-63
2023/10/19 18:21:16;;;;;;;96.17;54.93;;;8.50;99.90;;;;;;8403552;28;20255;-63
2023/10/19 18:25:18;;;;;;;79.87;48.30;;;8.40;99.90;;;;;;8405556;28;20213;-68
2023/10/19 18:29:19;;;;;;;84.03;47.97;;;8.40;99.90;;;;;;8405325;28;20189;-68
2023/10/19 18:33:20;;;;;;;71.43;42.00;;;8.40;99.90;;;;;;8403511;28;20213;-62
2023/10/19 18:37:20;;;;;;;73.40;42.10;;;8.40;99.90;;;;;;8400362;28;20184;-60
2023/10/19 18:41:22;;;;;;;71.80;41.37;;;8.40;99.90;;;;;;8402546;28;20188;-58
2023/10/19 18:45:23;;;;;;;74.47;41.37;;;8.40;99.90;;;;;;8399992;28;20544;-60
2023/10/19 18:49:24;;;;;;;110.23;57.17;;;8.40;99.90;;;;;;8401432;28;20224;-60
2023/10/19 18:53:25;;;;;;;80.17;45.70;;;8.50;99.90;;;;;;8400308;28;20209;-60
2023/10/19 18:57:27;;;;;;;86.43;44.73;;;8.40;99.90;;;;;;8402181;28;20186;-58
2023/10/19 19:01:28;;;;;;;71.23;39.53;;;8.50;99.90;;;;;;8397488;28;20201;-60
2023/10/19 19:05:30;;;;;;;66.50;38.97;;;8.40;99.90;;;;;;8398832;28;20182;-61
2023/10/19 19:09:31;;;;;;;101.37;62.20;;;8.50;99.90;;;;;;8398416;28;20185;-60
2023/10/19 19:13:33;;;;;;;98.13;52.00;;;8.50;99.90;;;;;;8399790;28;20261;-59
2023/10/19 19:17:34;;;;;;;81.27;44.40;;;8.40;99.90;;;;;;8398929;28;20204;-61
2023/10/19 19:21:40;;;;;;;77.67;42.87;;;8.40;99.90;;;;;;8400860;28;20216;-61
2023/10/19 19:25:44;;;;;;;74.63;41.67;;;8.40;99.90;;;;;;8398031;28;20191;-61
2023/10/19 19:29:45;;;;;;;97.53;48.33;;;8.50;99.90;;;;;;8402735;28;20578;-59
2023/10/19 19:33:47;;;;;;;118.17;55.13;;;8.50;99.90;;;;;;8400980;28;20205;-60
2023/10/19 19:37:48;;;;;;;121.83;54.50;;;8.40;99.90;;;;;;8399879;28;20545;-60
2023/10/19 19:41:49;;;;;;;116.47;53.13;;;8.50;99.90;;;;;;8396406;28;20211;-66
2023/10/19 19:45:50;;;;;;;124.30;55.57;;;8.50;99.90;;;;;;8401223;28;20185;-60
2023/10/19 19:49:50;;;;;;;106.83;49.17;;;8.40;99.90;;;;;;8400468;28;20241;-61
2023/10/19 19:53:51;;;;;;;131.37;53.47;;;8.40;99.90;;;;;;8401682;28;20232;-68
2023/10/19 19:57:52;;;;;;;107.73;51.00;;;8.40;99.90;;;;;;8403182;28;20176;-66
2023/10/19 20:01:53;;;;;;;122.50;51.57;;;8.40;99.90;;;;;;8402326;28;20208;-66
2023/10/19 20:05:58;;;;;;;137.67;58.43;;;8.40;99.90;;;;;;8398684;28;20191;-65
2023/10/19 20:09:59;;;;;;;124.63;57.60;;;8.40;99.90;;;;;;8403634;28;20298;-62
2023/10/19 20:14:00;;;;;;;93.47;42.70;;;8.40;99.90;;;;;;8398960;28;20220;-63
2023/10/19 20:18:02;;;;;;;88.07;43.07;;;8.40;99.90;;;;;;8399259;28;20188;-66
2023/10/19 20:22:03;;;;;;;92.57;43.33;;;8.40;99.90;;;;;;8399524;28;20188;-67
2023/10/19 20:26:07;;;;;;;86.87;43.13;;;8.30;99.90;;;;;;8401724;28;20202;-66
2023/10/19 20:30:12;;;;;;;94.00;44.57;;;8.30;99.90;;;;;;8400882;28;20200;-64
2023/10/19 20:34:13;;;;;;;94.53;42.97;;;8.30;99.90;;;;;;8399666;28;20212;-63
2023/10/19 20:38:19;;;;;;;102.03;45.03;;;8.30;99.90;;;;;;8400857;28;20204;-63
2023/10/19 20:42:20;;;;;;;97.93;45.87;;;8.30;99.90;;;;;;8404931;28;20219;-67
2023/10/19 20:46:21;;;;;;;86.40;42.53;;;8.30;99.90;;;;;;8401760;28;20188;-67
2023/10/19 20:50:22;;;;;;;108.77;46.90;;;8.30;99.90;;;;;;8399595;28;20302;-63